Time;durP1;ratioP1;P1;durP2;ratioP2;P2;SDS_P1;SDS_P2;PMS_P1;PMS_P2;Temp;Humidity;BMP_temperature;BMP_pressure;BME280_temperature;BME280_humidity;BME280_pressure;Samples;Min_cycle;Max_cycle;Signal;HPM_P1;HPM_P2
2022/05/30 00:00:52;;;;;;;2.80;2.60;;;13.40;99.90;;;;;;4997844;28;20523;-43
2022/05/30 00:03:19;;;;;;;9.80;2.70;;;13.40;99.90;;;;;;4998188;28;20432;-41
2022/05/30 00:05:49;;;;;;;6.18;2.08;;;13.40;99.90;;;;;;4998441;28;20210;-43
2022/05/30 00:08:21;;;;;;;2.40;2.05;;;13.20;99.90;;;;;;4997560;28;20312;-48
2022/05/30 00:10:48;;;;;;;2.88;2.55;;;13.20;99.90;;;;;;4997265;28;20210;-46
2022/05/30 00:13:16;;;;;;;2.97;2.67;;;13.30;99.90;;;;;;4996928;28;20229;-44
2022/05/30 00:15:43;;;;;;;2.70;2.30;;;13.40;99.90;;;;;;4991708;28;20334;-44
2022/05/30 00:18:12;;;;;;;2.70;1.98;;;13.30;99.90;;;;;;4996978;28;20210;-47
2022/05/30 00:20:44;;;;;;;2.95;2.10;;;13.30;99.90;;;;;;4997431;28;20209;-47
2022/05/30 00:23:11;;;;;;;2.33;1.95;;;13.30;99.90;;;;;;4996167;28;20233;-47
2022/05/30 00:25:40;;;;;;;3.70;2.42;;;13.40;99.90;;;;;;4997396;28;20521;-43
2022/05/30 00:28:08;;;;;;;4.97;3.60;;;13.40;99.90;;;;;;5014120;28;20524;-41
2022/05/30 00:30:36;;;;;;;3.42;3.10;;;13.40;99.90;;;;;;5002994;28;20285;-44
2022/05/30 00:33:04;;;;;;;2.67;2.45;;;13.50;99.90;;;;;;4999602;28;20319;-44
2022/05/30 00:35:31;;;;;;;2.80;2.60;;;13.50;99.90;;;;;;4998306;28;20259;-46
2022/05/30 00:37:59;;;;;;;1.80;1.65;;;13.50;99.90;;;;;;4998627;28;20209;-45
2022/05/30 00:40:26;;;;;;;2.92;2.13;;;13.50;99.90;;;;;;4998053;28;20198;-43
2022/05/30 00:42:53;;;;;;;2.97;2.35;;;13.50;99.90;;;;;;4998498;28;20239;-48
2022/05/30 00:45:20;;;;;;;1.98;1.67;;;13.50;99.90;;;;;;4993266;28;20210;-44
2022/05/30 00:47:50;;;;;;;4.38;2.75;;;13.50;99.90;;;;;;4998757;28;20221;-44
2022/05/30 00:50:18;;;;;;;4.47;3.00;;;13.50;99.90;;;;;;4998195;28;20864;-46
2022/05/30 00:52:46;;;;;;;2.35;2.15;;;13.40;99.90;;;;;;4998326;28;20229;-43
2022/05/30 00:55:18;;;;;;;2.10;2.00;;;13.40;99.90;;;;;;4998252;28;20640;-44
2022/05/30 00:57:47;;;;;;;3.03;2.70;;;13.40;99.90;;;;;;4998329;28;20556;-42
2022/05/30 01:00:21;;;;;;;3.72;2.90;;;13.30;99.90;;;;;;4998180;28;20436;-44
2022/05/30 01:06:30;;;;;;;5.05;2.33;;;13.30;99.90;;;;;;5000010;28;20296;-47
2022/05/30 01:08:28;;;;;;;2.65;2.45;;;13.20;99.90;;;;;;5002663;28;20273;-48
2022/05/30 01:10:56;;;;;;;24.60;3.60;;;13.20;99.90;;;;;;4999588;28;20288;-45
2022/05/30 01:13:24;;;;;;;2.60;2.40;;;13.20;99.90;;;;;;4997544;28;20304;-41
2022/05/30 01:15:51;;;;;;;2.58;2.10;;;13.20;99.90;;;;;;4998452;28;20239;-45
2022/05/30 01:18:25;;;;;;;4.93;2.75;;;13.20;99.90;;;;;;4997836;28;20592;-41
2022/05/30 01:20:52;;;;;;;2.80;2.30;;;13.00;99.90;;;;;;4994342;28;20209;-44
2022/05/30 01:23:51;;;;;;;3.72;2.65;;;13.00;99.90;;;;;;5001372;28;20229;-46
2022/05/30 01:26:38;;;;;;;3.42;2.95;;;13.10;99.90;;;;;;4993326;28;20199;-45
2022/05/30 01:29:20;;;;;;;2.78;2.55;;;13.00;99.90;;;;;;4992351;28;20211;-43
2022/05/30 01:31:47;;;;;;;3.13;2.80;;;13.10;99.90;;;;;;4996096;28;20225;-45
2022/05/30 01:34:22;;;;;;;2.90;2.60;;;13.00;99.90;;;;;;4997874;28;20238;-47
2022/05/30 01:36:49;;;;;;;2.80;2.45;;;12.90;99.90;;;;;;5001501;28;20396;-50
2022/05/30 01:39:17;;;;;;;2.90;2.60;;;12.90;99.90;;;;;;5001412;28;20197;-45
2022/05/30 01:41:45;;;;;;;3.20;3.00;;;12.80;99.90;;;;;;5001169;28;20308;-41
2022/05/30 01:44:14;;;;;;;5.88;2.63;;;12.40;99.90;;;;;;4994352;28;20567;-42
2022/05/30 01:46:41;;;;;;;2.60;2.40;;;12.40;99.90;;;;;;5001858;28;20476;-47
2022/05/30 01:49:09;;;;;;;3.45;2.90;;;12.30;99.90;;;;;;5001189;28;20213;-48
2022/05/30 01:51:36;;;;;;;2.88;2.53;;;12.20;99.90;;;;;;5001517;28;20284;-43
2022/05/30 01:54:04;;;;;;;3.50;3.20;;;12.30;99.90;;;;;;5000599;28;20212;-49
2022/05/30 01:56:31;;;;;;;4.05;2.90;;;12.40;99.90;;;;;;5001287;28;20201;-45
2022/05/30 01:58:58;;;;;;;4.05;3.65;;;12.30;99.90;;;;;;5000543;28;20202;-47
2022/05/30 02:01:30;;;;;;;6.30;2.97;;;12.40;99.90;;;;;;4994039;28;20478;-46
2022/05/30 02:03:57;;;;;;;3.97;3.33;;;12.50;99.90;;;;;;5000739;28;20410;-46
2022/05/30 02:06:26;;;;;;;3.00;2.78;;;12.60;99.90;;;;;;5001273;28;20205;-41
2022/05/30 02:08:54;;;;;;;3.67;3.00;;;12.50;99.90;;;;;;5001375;28;20204;-52
2022/05/30 02:11:21;;;;;;;3.67;2.90;;;12.70;99.90;;;;;;4999697;28;20244;-50
2022/05/30 02:13:48;;;;;;;4.20;3.10;;;12.80;99.90;;;;;;5001035;28;20213;-42
2022/05/30 02:19:04;;;;;;;6.90;2.80;;;12.90;99.90;;;;;;4997019;28;20563;-47
2022/05/30 02:21:34;;;;;;;4.35;3.30;;;12.70;99.90;;;;;;5000137;28;20226;-44
2022/05/30 02:24:04;;;;;;;3.25;2.95;;;12.80;99.90;;;;;;5000328;28;20538;-46
2022/05/30 02:26:32;;;;;;;3.97;3.22;;;12.80;99.90;;;;;;5000552;28;20274;-46
2022/05/30 02:29:04;;;;;;;2.72;2.40;;;12.70;99.90;;;;;;5000490;28;20212;-45
2022/05/30 02:31:32;;;;;;;3.08;2.80;;;12.90;99.90;;;;;;4993861;28;20217;-45
2022/05/30 02:36:45;;;;;;;2.90;2.60;;;13.00;99.90;;;;;;5000480;28;20201;-43
2022/05/30 02:39:21;;;;;;;6.10;3.55;;;12.80;99.90;;;;;;5000488;28;20516;-42
2022/05/30 02:41:49;;;;;;;6.65;2.85;;;12.70;99.90;;;;;;5000446;28;20248;-45
2022/05/30 02:44:19;;;;;;;3.05;2.72;;;12.70;99.90;;;;;;4998293;28;20275;-46
2022/05/30 02:46:50;;;;;;;5.97;2.75;;;12.60;99.90;;;;;;5000512;28;20201;-48
2022/05/30 02:49:18;;;;;;;2.67;2.28;;;12.50;99.90;;;;;;5000050;28;20408;-42
2022/05/30 02:51:46;;;;;;;4.97;2.15;;;12.40;99.90;;;;;;4983214;28;20238;-42
2022/05/30 02:54:14;;;;;;;5.38;2.45;;;12.50;99.90;;;;;;5000069;28;20282;-42
2022/05/30 02:56:46;;;;;;;3.15;2.85;;;12.50;99.90;;;;;;4999575;28;20205;-42
2022/05/30 02:59:14;;;;;;;4.88;2.55;;;12.40;99.90;;;;;;5000110;28;20215;-44
2022/05/30 03:01:41;;;;;;;3.67;2.70;;;12.00;99.90;;;;;;5000207;28;20239;-44
2022/05/30 03:04:09;;;;;;;2.75;2.50;;;12.20;99.90;;;;;;4999519;28;20403;-47
2022/05/30 03:06:37;;;;;;;5.32;3.20;;;12.30;99.90;;;;;;4999650;28;20236;-45
2022/05/30 03:09:05;;;;;;;2.78;2.58;;;12.40;99.90;;;;;;5000102;28;20212;-48
2022/05/30 03:11:38;;;;;;;6.88;2.75;;;12.30;99.90;;;;;;4999122;28;20244;-45
2022/05/30 03:14:05;;;;;;;2.22;2.00;;;12.30;99.90;;;;;;4999873;28;20543;-42
2022/05/30 03:16:32;;;;;;;5.55;2.75;;;12.10;99.90;;;;;;4999715;28;20243;-47
2022/05/30 03:18:59;;;;;;;3.40;3.10;;;12.20;99.90;;;;;;4999071;28;20212;-50
2022/05/30 03:21:27;;;;;;;5.22;2.92;;;12.30;99.90;;;;;;4997520;28;20496;-44
2022/05/30 03:23:54;;;;;;;4.18;3.17;;;12.20;99.90;;;;;;4998908;28;20531;-47
2022/05/30 03:26:21;;;;;;;2.95;2.45;;;12.00;99.90;;;;;;4993842;28;20213;-47
2022/05/30 03:28:48;;;;;;;3.58;3.28;;;12.10;99.90;;;;;;4997678;28;20283;-43
2022/05/30 03:31:16;;;;;;;3.83;2.95;;;12.20;99.90;;;;;;4998213;28;20216;-47
2022/05/30 03:33:43;;;;;;;5.78;3.47;;;12.40;99.90;;;;;;4994817;28;20280;-45
2022/05/30 03:36:22;;;;;;;5.38;3.22;;;12.40;99.90;;;;;;4995738;28;20320;-46
2022/05/30 03:38:49;;;;;;;2.97;2.75;;;12.50;99.90;;;;;;4997374;28;20205;-46
2022/05/30 03:41:17;;;;;;;3.33;2.55;;;12.60;99.90;;;;;;4997334;28;20549;-46
2022/05/30 03:43:44;;;;;;;2.35;2.10;;;12.60;99.90;;;;;;4997098;28;20212;-44
2022/05/30 03:46:12;;;;;;;3.78;3.05;;;12.60;99.90;;;;;;4997462;28;20209;-45
2022/05/30 03:48:39;;;;;;;6.18;2.70;;;12.30;99.90;;;;;;4997507;28;20212;-45
2022/05/30 03:51:12;;;;;;;3.25;2.95;;;12.10;99.90;;;;;;4997380;28;20221;-43
2022/05/30 03:53:40;;;;;;;4.22;3.75;;;12.00;99.90;;;;;;4998434;28;20578;-45
2022/05/30 03:56:08;;;;;;;2.70;2.47;;;11.90;99.90;;;;;;4997758;28;20233;-46
2022/05/30 03:58:35;;;;;;;5.22;3.40;;;12.00;99.90;;;;;;4998101;28;20403;-45
2022/05/30 04:01:07;;;;;;;3.20;2.90;;;12.00;99.90;;;;;;4996645;28;20277;-45
2022/05/30 04:03:35;;;;;;;3.97;3.45;;;11.90;99.90;;;;;;4997221;28;20232;-46
2022/05/30 04:06:04;;;;;;;3.00;2.80;;;12.00;99.90;;;;;;4996939;28;20213;-47
2022/05/30 04:08:31;;;;;;;2.65;2.45;;;12.00;99.90;;;;;;4996805;28;20219;-46
2022/05/30 04:10:59;;;;;;;4.15;2.60;;;12.00;99.90;;;;;;4997149;28;20209;-46
2022/05/30 04:13:27;;;;;;;4.20;2.95;;;12.20;99.90;;;;;;4991907;28;20247;-45
2022/05/30 04:15:54;;;;;;;6.57;3.45;;;12.50;99.90;;;;;;4996844;28;20598;-43
2022/05/30 04:18:22;;;;;;;3.47;3.17;;;12.70;99.90;;;;;;4996317;28;20206;-45
2022/05/30 04:20:52;;;;;;;4.55;2.97;;;12.60;99.90;;;;;;4996492;28;20212;-48
2022/05/30 04:23:20;;;;;;;6.15;3.25;;;12.60;99.90;;;;;;4996791;28;20225;-47
2022/05/30 04:25:47;;;;;;;4.20;3.45;;;12.60;99.90;;;;;;5000927;28;20231;-41
2022/05/30 04:28:16;;;;;;;4.55;3.00;;;12.50;99.90;;;;;;4997179;28;20530;-43
2022/05/30 04:30:43;;;;;;;2.20;2.00;;;12.60;99.90;;;;;;4996900;28;20527;-45
2022/05/30 04:33:11;;;;;;;4.53;3.20;;;12.60;99.90;;;;;;4996863;28;20233;-44
2022/05/30 04:35:38;;;;;;;5.97;2.72;;;12.60;99.90;;;;;;4991487;28;20305;-42
2022/05/30 04:38:05;;;;;;;4.72;3.15;;;12.70;99.90;;;;;;4996317;28;20557;-45
2022/05/30 04:40:33;;;;;;;3.58;2.75;;;12.80;99.90;;;;;;4997180;28;20206;-44
2022/05/30 04:43:00;;;;;;;2.60;2.20;;;12.70;99.90;;;;;;4995572;28;20233;-45
2022/05/30 04:45:27;;;;;;;3.13;2.83;;;12.70;99.90;;;;;;4992710;28;20209;-44
2022/05/30 04:47:55;;;;;;;4.07;2.85;;;12.70;99.90;;;;;;4996667;28;20464;-43
2022/05/30 04:50:22;;;;;;;5.07;3.75;;;12.70;99.90;;;;;;4996564;28;20709;-46
2022/05/30 04:52:50;;;;;;;7.38;4.68;;;12.70;99.90;;;;;;4996390;28;20233;-48
2022/05/30 04:55:18;;;;;;;3.85;2.85;;;12.70;99.90;;;;;;4996488;28;20256;-46
2022/05/30 04:57:48;;;;;;;3.53;2.70;;;12.60;99.90;;;;;;5000485;28;20214;-45
2022/05/30 05:00:19;;;;;;;3.53;3.05;;;12.60;99.90;;;;;;4986669;28;20546;-41
2022/05/30 05:02:46;;;;;;;2.92;2.53;;;12.70;99.90;;;;;;4984206;28;20468;-46
2022/05/30 05:05:14;;;;;;;4.63;4.00;;;12.90;99.90;;;;;;4997928;28;20210;-43
2022/05/30 05:07:49;;;;;;;4.10;3.75;;;13.00;99.90;;;;;;4998061;28;20237;-44
2022/05/30 05:10:44;;;;;;;4.30;3.15;;;13.30;99.90;;;;;;5000587;28;20198;-41
2022/05/30 05:13:11;;;;;;;4.25;2.92;;;13.50;99.90;;;;;;4998059;28;20233;-47
2022/05/30 05:15:39;;;;;;;7.95;3.65;;;13.50;99.90;;;;;;4998840;28;20240;-46
2022/05/30 05:18:06;;;;;;;4.07;3.78;;;13.80;99.90;;;;;;4998790;28;20273;-45
2022/05/30 05:20:40;;;;;;;7.68;3.60;;;13.70;99.90;;;;;;5000766;28;20524;-48
2022/05/30 05:23:07;;;;;;;6.45;2.83;;;13.60;99.90;;;;;;5000200;28;20253;-44
2022/05/30 05:25:39;;;;;;;5.53;3.05;;;13.40;99.90;;;;;;5000830;28;20216;-45
2022/05/30 05:28:07;;;;;;;3.15;2.83;;;13.70;99.90;;;;;;5000250;28;20398;-41
2022/05/30 05:30:34;;;;;;;5.10;3.08;;;13.50;99.90;;;;;;5002902;28;20236;-44
2022/05/30 05:33:02;;;;;;;11.25;6.07;;;13.50;99.90;;;;;;5010098;28;20243;-44
2022/05/30 05:35:29;;;;;;;7.90;4.60;;;13.70;99.90;;;;;;4995490;28;20225;-47
2022/05/30 05:37:57;;;;;;;4.80;3.38;;;14.10;99.90;;;;;;5001117;28;20215;-44
2022/05/30 05:40:24;;;;;;;4.15;3.58;;;14.20;99.90;;;;;;5000331;28;20520;-44
2022/05/30 05:42:51;;;;;;;4.20;3.75;;;14.10;99.90;;;;;;4998577;28;20235;-45
2022/05/30 05:45:19;;;;;;;5.10;4.60;;;13.90;99.90;;;;;;5000612;28;20212;-46
2022/05/30 05:47:47;;;;;;;4.30;3.90;;;13.90;99.90;;;;;;4998209;28;20384;-46
2022/05/30 05:50:17;;;;;;;4.25;3.85;;;14.00;99.90;;;;;;4998857;28;20216;-44
2022/05/30 05:52:44;;;;;;;4.65;3.95;;;14.20;99.90;;;;;;4997391;28;20651;-43
2022/05/30 05:55:12;;;;;;;4.00;3.70;;;14.40;99.90;;;;;;4997910;28;20225;-52
2022/05/30 05:57:39;;;;;;;3.83;3.17;;;14.30;99.90;;;;;;5000520;28;20205;-46
2022/05/30 06:00:07;;;;;;;5.57;3.47;;;14.50;99.90;;;;;;4996659;28;20205;-46
2022/05/30 06:02:34;;;;;;;5.47;4.38;;;14.70;99.90;;;;;;4997263;28;20339;-46
2022/05/30 06:05:03;;;;;;;3.08;2.78;;;14.50;99.90;;;;;;4979858;28;20609;-44
2022/05/30 06:07:32;;;;;;;4.22;3.33;;;14.10;99.90;;;;;;4996879;28;20531;-42
2022/05/30 06:10:00;;;;;;;3.13;2.92;;;14.00;99.90;;;;;;4997852;28;20240;-47
2022/05/30 06:12:27;;;;;;;2.92;2.72;;;13.70;99.90;;;;;;4997760;28;20252;-43
2022/05/30 06:15:01;;;;;;;3.38;2.90;;;13.70;99.90;;;;;;4994939;28;20523;-46
2022/05/30 06:17:32;;;;;;;4.82;3.53;;;13.70;99.90;;;;;;5008141;28;20197;-42
2022/05/30 06:20:02;;;;;;;5.20;2.95;;;13.90;99.90;;;;;;5002169;28;20599;-43
2022/05/30 06:22:29;;;;;;;3.25;2.10;;;13.90;99.90;;;;;;4999307;28;20474;-42
2022/05/30 06:24:56;;;;;;;2.95;2.75;;;14.10;99.90;;;;;;4998873;28;20212;-43
2022/05/30 06:27:23;;;;;;;2.35;2.13;;;14.00;99.90;;;;;;4991772;28;20212;-45
2022/05/30 06:29:51;;;;;;;4.28;2.42;;;14.00;99.90;;;;;;4995564;28;20285;-45
2022/05/30 06:32:19;;;;;;;3.97;2.28;;;14.10;99.90;;;;;;4993347;28;20274;-44
2022/05/30 06:34:47;;;;;;;3.65;3.35;;;14.10;99.90;;;;;;4992885;28;20573;-44
2022/05/30 06:37:15;;;;;;;7.25;2.35;;;14.20;99.90;;;;;;4994335;28;20556;-47
2022/05/30 06:39:42;;;;;;;4.32;2.63;;;14.40;99.90;;;;;;4995643;28;20507;-44
2022/05/30 06:42:11;;;;;;;2.28;1.92;;;14.40;99.90;;;;;;4995310;28;20225;-44
2022/05/30 06:44:39;;;;;;;2.70;2.50;;;14.50;99.90;;;;;;4998304;28;20276;-48
2022/05/30 06:47:08;;;;;;;2.85;2.05;;;14.50;99.90;;;;;;4998273;28;20280;-47
2022/05/30 06:49:35;;;;;;;5.32;2.42;;;14.20;99.90;;;;;;4994695;28;20272;-44
2022/05/30 06:52:03;;;;;;;7.35;3.33;;;14.20;99.90;;;;;;4998176;28;20575;-45
2022/05/30 06:54:31;;;;;;;5.43;3.08;;;14.10;99.90;;;;;;4998550;28;20216;-47
2022/05/30 06:59:44;;;;;;;2.40;2.20;;;13.80;99.90;;;;;;4998521;28;20280;-45
2022/05/30 07:02:16;;;;;;;2.97;2.65;;;13.90;99.90;;;;;;4997494;28;20260;-44
2022/05/30 07:04:47;;;;;;;3.42;2.08;;;14.10;99.90;;;;;;4999089;28;20382;-47
2022/05/30 07:07:14;;;;;;;2.70;2.38;;;14.00;99.90;;;;;;4999281;28;20205;-41
2022/05/30 07:09:42;;;;;;;3.45;2.88;;;13.90;99.90;;;;;;5000716;28;20221;-43
2022/05/30 07:12:10;;;;;;;2.92;2.72;;;14.10;99.90;;;;;;4997084;28;20241;-43
2022/05/30 07:14:38;;;;;;;5.15;2.50;;;14.10;99.90;;;;;;4996807;28;20285;-48
2022/05/30 07:17:07;;;;;;;2.15;2.03;;;13.90;99.90;;;;;;4997355;28;20229;-42
2022/05/30 07:19:34;;;;;;;4.10;3.72;;;13.90;99.90;;;;;;4994565;28;20732;-48
2022/05/30 07:22:06;;;;;;;2.90;2.70;;;14.00;99.90;;;;;;4997890;28;20296;-47
2022/05/30 07:24:33;;;;;;;2.70;2.50;;;13.90;99.90;;;;;;4996992;28;20225;-44
2022/05/30 07:27:01;;;;;;;3.65;3.35;;;14.00;99.90;;;;;;4997542;28;20237;-45
2022/05/30 07:29:28;;;;;;;3.45;3.08;;;14.10;99.90;;;;;;4997442;28;20668;-46
2022/05/30 07:32:04;;;;;;;3.25;3.05;;;14.20;99.90;;;;;;4997732;28;20381;-49
2022/05/30 07:34:31;;;;;;;3.83;3.53;;;14.40;99.90;;;;;;4988891;28;20207;-44
2022/05/30 07:37:00;;;;;;;3.30;3.00;;;14.80;99.90;;;;;;4997169;28;20440;-44
2022/05/30 07:39:27;;;;;;;4.35;2.65;;;15.00;99.90;;;;;;4989381;28;20392;-42
2022/05/30 07:41:55;;;;;;;3.85;3.55;;;15.50;99.90;;;;;;4997360;28;20231;-43
2022/05/30 07:44:22;;;;;;;8.07;3.40;;;15.80;99.90;;;;;;4997083;28;20205;-43
2022/05/30 07:46:52;;;;;;;3.33;3.03;;;15.90;99.90;;;;;;4997324;28;20226;-47
2022/05/30 07:49:25;;;;;;;2.97;2.70;;;16.00;99.90;;;;;;4996933;28;20514;-45
2022/05/30 07:51:53;;;;;;;4.88;2.60;;;16.00;99.90;;;;;;4997643;28;20562;-45
2022/05/30 07:54:22;;;;;;;3.20;2.78;;;16.20;99.90;;;;;;4996952;28;20221;-45
2022/05/30 07:56:50;;;;;;;3.23;2.93;;;16.20;99.90;;;;;;4998145;28;20230;-47
2022/05/30 07:59:17;;;;;;;2.90;2.60;;;16.10;99.90;;;;;;4997811;28;20620;-42
2022/05/30 08:01:45;;;;;;;7.07;3.03;;;15.90;99.90;;;;;;4997755;28;20475;-42
2022/05/30 08:04:15;;;;;;;3.60;2.50;;;15.80;99.90;;;;;;4998136;28;20242;-44
2022/05/30 08:06:42;;;;;;;2.50;2.23;;;15.80;99.90;;;;;;4997725;28;20675;-43
2022/05/30 08:09:09;;;;;;;3.07;2.87;;;15.90;99.90;;;;;;4997779;28;20503;-44
2022/05/30 08:11:37;;;;;;;2.95;2.70;;;15.70;99.90;;;;;;4996885;28;20461;-44
2022/05/30 08:14:06;;;;;;;5.53;2.90;;;15.70;99.90;;;;;;4996753;28;20222;-45
2022/05/30 08:16:37;;;;;;;3.17;2.90;;;15.60;99.90;;;;;;4996753;28;20260;-42
2022/05/30 08:19:21;;;;;;;2.03;1.93;;;15.80;99.90;;;;;;4997100;28;20441;-43
2022/05/30 08:22:10;;;;;;;3.43;2.73;;;15.90;99.90;;;;;;4996359;28;20474;-45
2022/05/30 08:24:42;;;;;;;2.47;2.33;;;16.00;99.90;;;;;;4997179;28;20500;-42
2022/05/30 08:27:11;;;;;;;4.00;2.33;;;16.20;99.90;;;;;;4996888;28;20449;-43
2022/05/30 08:29:38;;;;;;;3.83;3.43;;;16.40;99.90;;;;;;4997260;28;20433;-48
2022/05/30 08:32:06;;;;;;;3.30;2.30;;;16.30;99.90;;;;;;5000359;28;20747;-45
2022/05/30 08:34:37;;;;;;;4.55;3.67;;;16.30;99.90;;;;;;4995510;28;20450;-45
2022/05/30 08:37:05;;;;;;;5.33;3.43;;;16.60;99.90;;;;;;5000531;28;20238;-42
2022/05/30 08:42:31;;;;;;;2.80;2.60;;;17.70;99.90;;;;;;5000640;28;20524;-42
2022/05/30 08:45:02;;;;;;;4.40;2.80;;;18.50;99.90;;;;;;5000371;28;20473;-42
2022/05/30 08:47:30;;;;;;;3.60;2.53;;;19.40;99.90;;;;;;4999093;28;20503;-41
2022/05/30 08:50:27;;;;;;;4.70;2.47;;;19.50;99.90;;;;;;5000683;28;20425;-45
2022/05/30 08:53:19;;;;;;;2.07;1.97;;;19.80;99.90;;;;;;4970464;28;20500;-43
2022/05/30 08:56:00;;;;;;;2.60;2.20;;;20.00;99.90;;;;;;4997174;28;20454;-43
2022/05/30 08:58:40;;;;;;;3.13;2.10;;;19.60;99.90;;;;;;4992620;28;20457;-45
2022/05/30 09:01:13;;;;;;;2.33;2.10;;;19.40;99.90;;;;;;5000330;28;20443;-49
2022/05/30 09:04:10;;;;;;;5.40;2.80;;;19.40;99.90;;;;;;5000772;28;20621;-46
2022/05/30 09:07:13;;;;;;;3.50;2.77;;;19.50;99.90;;;;;;4993353;28;20443;-44
2022/05/30 09:09:59;;;;;;;3.40;3.10;;;19.40;99.90;;;;;;4999617;28;20804;-47
2022/05/30 09:12:33;;;;;;;3.53;2.77;;;19.50;99.90;;;;;;4994003;28;20445;-49
2022/05/30 09:15:23;;;;;;;2.80;2.47;;;19.50;99.90;;;;;;4999990;28;20639;-46
2022/05/30 09:18:35;;;;;;;3.93;3.53;;;19.20;99.90;;;;;;4996983;28;20644;-44
2022/05/30 09:21:03;;;;;;;4.20;2.60;;;18.60;99.90;;;;;;4958852;29;20415;-41
2022/05/30 09:23:30;;;;;;;2.30;2.10;;;18.50;99.90;;;;;;4959272;29;20543;-44
2022/05/30 09:25:57;;;;;;;4.93;2.40;;;18.60;99.90;;;;;;4977883;28;20443;-46
2022/05/30 09:28:31;;;;;;;4.50;2.20;;;18.90;99.90;;;;;;5000053;28;20421;-44
2022/05/30 09:31:04;;;;;;;2.70;2.50;;;19.10;99.90;;;;;;4999613;28;20463;-43
2022/05/30 09:33:39;;;;;;;2.70;2.50;;;19.50;99.90;;;;;;4998091;28;20892;-42
2022/05/30 09:36:19;;;;;;;3.73;3.40;;;19.70;99.90;;;;;;4996825;28;20457;-47
2022/05/30 09:39:04;;;;;;;3.57;2.27;;;19.80;99.90;;;;;;4999723;28;20601;-49
2022/05/30 09:41:55;;;;;;;4.20;3.03;;;19.90;99.90;;;;;;4997427;28;20713;-47
2022/05/30 09:44:38;;;;;;;4.57;3.33;;;20.00;99.90;;;;;;4999028;28;20417;-47
2022/05/30 09:47:17;;;;;;;3.33;3.03;;;20.20;99.90;;;;;;4999088;28;20501;-47
2022/05/30 09:49:46;;;;;;;2.53;2.20;;;20.60;99.90;;;;;;4999576;28;20422;-45
2022/05/30 09:52:28;;;;;;;3.03;2.13;;;20.70;99.90;;;;;;4999401;28;20477;-50
2022/05/30 09:54:56;;;;;;;2.30;1.77;;;20.60;99.90;;;;;;4999381;28;20482;-48
2022/05/30 09:57:44;;;;;;;2.60;1.77;;;20.20;99.90;;;;;;4998921;28;20665;-46
2022/05/30 10:00:17;;;;;;;1.33;1.23;;;20.00;99.90;;;;;;4999251;28;20761;-41
2022/05/30 10:02:45;;;;;;;2.07;1.70;;;20.30;99.90;;;;;;4999542;28;20718;-43
2022/05/30 10:05:27;;;;;;;1.53;1.33;;;20.20;99.90;;;;;;4999445;28;20451;-41
2022/05/30 10:08:00;;;;;;;2.00;1.40;;;20.00;99.90;;;;;;4999359;28;20436;-48
2022/05/30 10:10:49;;;;;;;1.50;1.40;;;20.00;99.90;;;;;;4993937;28;20446;-45
2022/05/30 10:13:36;;;;;;;1.70;1.60;;;20.00;99.90;;;;;;5003261;28;20493;-48
2022/05/30 10:16:07;;;;;;;1.60;1.50;;;20.40;99.90;;;;;;5004968;28;20419;-45
2022/05/30 10:18:38;;;;;;;4.40;1.67;;;20.60;99.90;;;;;;5000298;28;20676;-46
2022/05/30 10:21:22;;;;;;;5.10;1.53;;;20.60;99.90;;;;;;4999097;28;20439;-42
2022/05/30 10:28:14;;;;;;;3.83;1.30;;;21.20;99.90;;;;;;4993614;28;20454;-46
2022/05/30 10:30:22;;;;;;;1.50;1.33;;;20.80;99.90;;;;;;4989384;28;20609;-45
2022/05/30 10:33:12;;;;;;;1.50;1.40;;;20.40;99.90;;;;;;4999094;28;20471;-46
2022/05/30 10:36:17;;;;;;;1.10;1.03;;;20.60;99.90;;;;;;4992795;28;20445;-43
2022/05/30 10:39:01;;;;;;;2.30;1.87;;;20.60;99.90;;;;;;4995507;28;20422;-47
2022/05/30 10:42:10;;;;;;;6.03;1.40;;;20.70;99.90;;;;;;4999198;28;20691;-44
2022/05/30 10:44:54;;;;;;;2.00;1.80;;;20.40;99.90;;;;;;4913146;29;20421;-47
2022/05/30 10:47:45;;;;;;;2.40;1.30;;;20.10;99.90;;;;;;4911734;29;20419;-45
2022/05/30 10:50:18;;;;;;;1.17;1.10;;;19.80;99.90;;;;;;4979465;28;20641;-43
2022/05/30 10:52:48;;;;;;;2.63;1.50;;;19.60;99.90;;;;;;4998020;28;20517;-48
2022/05/30 10:55:30;;;;;;;1.60;1.50;;;19.30;99.90;;;;;;4998016;28;20470;-48
2022/05/30 10:58:08;;;;;;;1.67;1.40;;;19.10;99.90;;;;;;4993875;28;20453;-46
2022/05/30 11:00:46;;;;;;;2.03;1.30;;;18.80;99.90;;;;;;4997988;28;20413;-44
2022/05/30 11:03:21;;;;;;;0.97;0.97;;;18.80;99.90;;;;;;4997969;28;20456;-49
2022/05/30 11:06:09;;;;;;;1.27;1.07;;;19.00;99.90;;;;;;4997966;28;20772;-43
2022/05/30 11:09:12;;;;;;;1.77;1.00;;;19.10;99.90;;;;;;4991768;28;20410;-48
2022/05/30 11:11:44;;;;;;;2.63;1.57;;;19.10;99.90;;;;;;4991397;28;20472;-45
2022/05/30 11:14:31;;;;;;;1.97;1.87;;;19.10;99.90;;;;;;4997674;28;20770;-45
2022/05/30 11:17:21;;;;;;;1.40;1.30;;;18.90;99.90;;;;;;4997753;28;20545;-51
2022/05/30 11:20:01;;;;;;;2.40;1.60;;;18.50;99.90;;;;;;4997030;28;20673;-42
2022/05/30 11:22:42;;;;;;;1.33;1.23;;;18.50;99.90;;;;;;4991067;28;20504;-47
2022/05/30 11:25:13;;;;;;;1.23;1.07;;;18.40;99.90;;;;;;4995085;28;20436;-43
2022/05/30 11:28:00;;;;;;;2.97;1.97;;;18.50;99.90;;;;;;4997752;28;20443;-42
2022/05/30 11:30:52;;;;;;;2.20;2.10;;;18.60;99.90;;;;;;4989934;28;20439;-43
2022/05/30 11:33:28;;;;;;;1.47;1.10;;;18.80;99.90;;;;;;4997246;28;20430;-46
2022/05/30 11:36:15;;;;;;;1.03;1.03;;;18.60;99.90;;;;;;4993307;28;20809;-42
2022/05/30 11:38:59;;;;;;;1.30;1.20;;;18.60;99.90;;;;;;4992620;28;20765;-46
2022/05/30 11:41:46;;;;;;;1.27;1.17;;;18.80;99.90;;;;;;4989463;28;20446;-45
2022/05/30 11:44:41;;;;;;;1.60;1.50;;;18.80;99.90;;;;;;4997093;28;20826;-47
2022/05/30 11:47:34;;;;;;;1.20;1.10;;;18.80;99.90;;;;;;4997280;28;20600;-46
2022/05/30 11:50:56;;;;;;;0.80;0.77;;;19.10;99.90;;;;;;4992910;28;20464;-43
2022/05/30 11:53:45;;;;;;;2.73;0.90;;;18.90;99.90;;;;;;4935764;29;20508;-44
2022/05/30 11:56:29;;;;;;;1.03;1.03;;;18.90;99.90;;;;;;4936403;29;20420;-45
2022/05/30 11:59:21;;;;;;;3.40;1.10;;;18.80;99.90;;;;;;4969820;28;20417;-47
2022/05/30 12:01:54;;;;;;;1.63;1.53;;;18.70;99.90;;;;;;4991490;28;20822;-47
2022/05/30 12:04:44;;;;;;;3.20;2.50;;;18.50;99.90;;;;;;4996852;28;20425;-47
2022/05/30 12:07:29;;;;;;;1.90;1.40;;;18.40;99.90;;;;;;4996530;28;20805;-46
2022/05/30 12:10:23;;;;;;;1.00;1.00;;;18.30;99.90;;;;;;4993185;28;20489;-46
2022/05/30 12:13:14;;;;;;;3.23;2.87;;;18.00;99.90;;;;;;4996772;28;20872;-45
2022/05/30 12:16:11;;;;;;;1.23;1.07;;;18.00;99.90;;;;;;4991765;28;20452;-42
2022/05/30 12:24:32;;;;;;;1.83;1.70;;;18.10;99.90;;;;;;4993562;28;20814;-46
2022/05/30 12:27:32;;;;;;;1.13;1.03;;;18.30;99.90;;;;;;4999102;28;20552;-43
2022/05/30 12:30:04;;;;;;;1.30;1.00;;;18.60;99.90;;;;;;4998915;28;20410;-45
2022/05/30 12:32:34;;;;;;;1.60;1.50;;;18.70;99.90;;;;;;4990589;28;20494;-46
2022/05/30 12:35:13;;;;;;;2.73;2.47;;;18.80;99.90;;;;;;4994244;28;20501;-48
2022/05/30 12:38:10;;;;;;;2.03;1.70;;;18.90;99.90;;;;;;4991496;28;20490;-45
2022/05/30 12:40:38;;;;;;;2.73;2.33;;;19.00;99.90;;;;;;4994513;28;20457;-46
2022/05/30 12:43:09;;;;;;;1.20;1.10;;;19.20;99.90;;;;;;4996040;28;20473;-44
2022/05/30 12:45:40;;;;;;;1.10;0.90;;;19.30;99.90;;;;;;4997061;28;20425;-43
2022/05/30 12:48:27;;;;;;;1.10;1.03;;;19.50;99.90;;;;;;4998923;28;20493;-47
2022/05/30 12:50:54;;;;;;;1.47;1.13;;;19.60;99.90;;;;;;5000317;28;20627;-48
2022/05/30 12:53:25;;;;;;;2.23;1.20;;;19.70;99.90;;;;;;4998964;28;20843;-49
2022/05/30 12:55:55;;;;;;;1.30;1.20;;;19.60;99.90;;;;;;4999527;28;20410;-47
2022/05/30 12:58:42;;;;;;;0.77;0.77;;;19.50;99.90;;;;;;4999573;28;20491;-49
2022/05/30 13:01:10;;;;;;;1.10;1.00;;;19.50;99.90;;;;;;4998928;28;20438;-43
2022/05/30 13:03:44;;;;;;;1.13;1.00;;;19.70;99.90;;;;;;4999438;28;20766;-47
2022/05/30 13:06:16;;;;;;;1.17;1.03;;;19.80;99.90;;;;;;4999044;28;20414;-47
2022/05/30 13:08:59;;;;;;;1.33;0.90;;;19.90;99.90;;;;;;4997726;28;20446;-46
2022/05/30 13:11:29;;;;;;;0.80;0.80;;;20.10;99.90;;;;;;4996762;28;20426;-42
2022/05/30 13:14:22;;;;;;;1.53;1.43;;;20.30;99.90;;;;;;4996597;28;20425;-47
2022/05/30 13:16:52;;;;;;;1.67;1.20;;;20.20;99.90;;;;;;4992798;28;20628;-50
2022/05/30 13:19:24;;;;;;;1.67;0.93;;;20.30;99.90;;;;;;5000574;28;20439;-46
2022/05/30 13:21:51;;;;;;;2.40;1.10;;;20.50;99.90;;;;;;5001231;28;20445;-47
2022/05/30 13:24:26;;;;;;;1.53;1.30;;;20.30;99.90;;;;;;5001531;28;20477;-46
2022/05/30 13:26:54;;;;;;;1.00;1.00;;;20.20;99.90;;;;;;4995707;28;20417;-43
2022/05/30 13:29:36;;;;;;;1.60;1.50;;;20.20;99.90;;;;;;5000226;28;20427;-47
2022/05/30 13:32:06;;;;;;;1.57;1.30;;;20.00;99.90;;;;;;4996250;28;20807;-46
2022/05/30 13:34:34;;;;;;;1.00;0.80;;;19.70;99.90;;;;;;4994686;28;20429;-43
2022/05/30 13:37:03;;;;;;;0.67;0.67;;;19.70;99.90;;;;;;4999350;28;20821;-46
2022/05/30 13:39:34;;;;;;;1.37;0.80;;;19.60;99.90;;;;;;4996390;28;20882;-44
2022/05/30 13:42:01;;;;;;;2.47;1.43;;;19.80;99.90;;;;;;4999222;28;20433;-52